createdAt,value
2018-01-12T00:01:44.522Z,18.63
2018-01-12T00:04:12.184Z,19.73
2018-01-12T00:06:39.866Z,17.67
2018-01-12T00:09:07.573Z,20.63
2018-01-12T00:11:35.229Z,19.10
2018-01-12T00:14:02.897Z,21.13
2018-01-12T00:16:30.582Z,19.97
2018-01-12T00:18:58.211Z,20.17
2018-01-12T00:21:26.859Z,21.70
2018-01-12T00:23:54.546Z,19.83
2018-01-12T00:26:22.218Z,21.20
2018-01-12T00:28:50.530Z,22.87
2018-01-12T00:31:19.826Z,22.20
2018-01-12T00:33:48.196Z,19.60
2018-01-12T00:36:17.489Z,20.80
2018-01-12T00:38:45.205Z,20.10
2018-01-12T00:41:12.926Z,18.10
2018-01-12T00:43:41.438Z,18.20
2018-01-12T00:46:09.161Z,18.90
2018-01-12T00:48:36.900Z,19.00
2018-01-12T00:51:04.620Z,19.43
2018-01-12T00:53:32.357Z,19.13
2018-01-12T00:56:00.795Z,18.23
2018-01-12T00:58:28.534Z,18.40
2018-01-12T01:00:56.206Z,18.77
2018-01-12T01:03:23.876Z,18.70
2018-01-12T01:05:52.319Z,18.70
2018-01-12T01:08:20.000Z,21.00
2018-01-12T01:10:47.636Z,20.43
2018-01-12T01:13:16.073Z,18.87
2018-01-12T01:15:43.776Z,19.87
2018-01-12T01:18:11.426Z,20.67
2018-01-12T01:20:39.856Z,21.67
2018-01-12T01:23:07.533Z,22.87
2018-01-12T01:25:35.186Z,20.13
2018-01-12T01:28:02.850Z,20.47
2018-01-12T01:30:30.526Z,20.70
2018-01-12T01:32:58.169Z,18.90
2018-01-12T01:35:25.841Z,19.90
2018-01-12T01:37:53.536Z,18.87
2018-01-12T01:40:21.185Z,20.07
2018-01-12T01:42:49.639Z,17.37
2018-01-12T01:45:17.307Z,18.43
2018-01-12T01:47:44.960Z,17.33
2018-01-12T01:50:12.646Z,19.30
2018-01-12T01:52:41.080Z,17.47
2018-01-12T01:55:08.754Z,18.70
2018-01-12T01:57:36.431Z,19.20
2018-01-12T02:00:04.128Z,19.97
2018-01-12T02:02:31.764Z,19.47
2018-01-12T02:05:00.211Z,18.87
2018-01-12T02:07:27.888Z,19.53
2018-01-12T02:09:55.528Z,20.60
2018-01-12T02:12:23.192Z,20.80
2018-01-12T02:14:50.868Z,21.87
2018-01-12T02:17:18.549Z,22.70
2018-01-12T02:19:47.008Z,23.23
2018-01-12T02:22:14.706Z,23.07
2018-01-12T02:24:42.374Z,24.60
2018-01-12T02:27:10.039Z,26.47
2018-01-12T02:29:37.710Z,24.60
2018-01-12T02:32:05.351Z,26.43
2018-01-12T02:34:33.702Z,24.80
2018-01-12T02:37:02.136Z,26.93
2018-01-12T02:39:29.805Z,27.40
2018-01-12T02:41:58.245Z,25.90
2018-01-12T02:44:25.936Z,25.10
2018-01-12T02:46:53.585Z,25.37
2018-01-12T02:49:21.260Z,26.30
2018-01-12T02:51:48.946Z,26.17
2018-01-12T02:54:16.603Z,25.73
2018-01-12T02:56:44.284Z,27.10
2018-01-12T02:59:12.762Z,28.40
2018-01-12T03:01:41.179Z,26.50
2018-01-12T03:04:09.460Z,27.67
2018-01-12T03:06:37.156Z,27.33
2018-01-12T03:09:04.916Z,26.47
2018-01-12T03:11:32.581Z,25.93
2018-01-12T03:14:00.260Z,26.60
2018-01-12T03:16:28.697Z,24.13
2018-01-12T03:18:56.401Z,27.33
2018-01-12T03:21:24.854Z,25.43
2018-01-12T03:23:52.521Z,25.90
2018-01-12T03:26:20.230Z,25.07
2018-01-12T03:28:47.897Z,25.17
2018-01-12T03:31:15.537Z,26.03
2018-01-12T03:33:43.220Z,24.77
2018-01-12T03:36:10.923Z,23.90
2018-01-12T03:38:38.578Z,23.10
2018-01-12T03:41:06.307Z,25.80
2018-01-12T03:43:33.986Z,24.53
2018-01-12T03:46:01.636Z,24.30
2018-01-12T03:48:30.189Z,23.73
2018-01-12T03:50:57.895Z,22.90
2018-01-12T03:53:25.519Z,26.20
2018-01-12T03:55:53.196Z,25.50
2018-01-12T03:58:20.889Z,24.80
2018-01-12T04:00:48.533Z,28.20
2018-01-12T04:03:16.593Z,25.13
2018-01-12T04:05:44.344Z,25.27
2018-01-12T04:08:11.992Z,26.37
2018-01-12T04:10:39.743Z,25.87
2018-01-12T04:13:07.416Z,25.70
2018-01-12T04:15:35.068Z,25.13
2018-01-12T04:18:02.747Z,27.30
2018-01-12T04:20:30.425Z,25.60
2018-01-12T04:22:58.086Z,23.40
2018-01-12T04:25:25.751Z,24.97
2018-01-12T04:27:53.424Z,23.73
2018-01-12T04:30:21.086Z,25.37
2018-01-12T04:32:48.805Z,22.53
2018-01-12T04:35:16.476Z,20.07
2018-01-12T04:37:44.134Z,20.20
2018-01-12T04:40:11.837Z,20.63
2018-01-12T04:42:40.303Z,23.07
2018-01-12T04:45:07.974Z,23.60
2018-01-12T04:47:35.649Z,23.80
2018-01-12T04:50:04.082Z,20.57
2018-01-12T04:52:31.742Z,21.80
2018-01-12T04:54:59.413Z,21.90
2018-01-12T04:57:27.486Z,22.47
2018-01-12T04:59:55.130Z,22.97
2018-01-12T05:02:22.825Z,22.23
2018-01-12T05:04:51.287Z,22.67
2018-01-12T05:07:18.947Z,21.27
2018-01-12T05:09:46.637Z,21.57
2018-01-12T05:12:15.098Z,23.33
2018-01-12T05:14:42.784Z,23.87
2018-01-12T05:17:10.513Z,23.90
2018-01-12T05:19:38.186Z,24.20
2018-01-12T05:22:05.827Z,23.70
2018-01-12T05:24:33.887Z,23.67
2018-01-12T05:27:01.560Z,23.13
2018-01-12T05:29:29.382Z,21.77
2018-01-12T05:31:57.083Z,23.00
2018-01-12T05:34:24.762Z,21.90
2018-01-12T05:36:52.411Z,22.17
2018-01-12T05:39:20.130Z,23.90
2018-01-12T05:41:47.820Z,24.30
2018-01-12T05:44:15.467Z,24.70
2018-01-12T05:46:43.141Z,22.83
2018-01-12T05:49:10.814Z,21.70
2018-01-12T05:51:38.459Z,21.23
2018-01-12T05:54:06.129Z,21.07
2018-01-12T05:56:33.805Z,19.40
2018-01-12T05:59:01.459Z,22.33
2018-01-12T06:01:41.069Z,19.53
2018-01-12T06:04:20.489Z,19.03
2018-01-12T06:06:48.180Z,18.03
2018-01-12T06:09:15.851Z,19.70
2018-01-12T06:11:43.497Z,17.97
2018-01-12T06:14:11.205Z,18.80
2018-01-12T06:16:38.907Z,15.80
2018-01-12T06:19:06.563Z,18.10
2018-01-12T06:21:34.273Z,17.03
2018-01-12T06:24:02.769Z,17.63
2018-01-12T06:26:30.475Z,17.17
2018-01-12T06:28:58.141Z,16.87
2018-01-12T06:31:25.832Z,16.33
2018-01-12T06:33:54.261Z,17.40
2018-01-12T06:36:21.964Z,16.50
2018-01-12T06:38:49.658Z,14.80
2018-01-12T06:41:17.295Z,17.10
2018-01-12T06:43:45.756Z,15.33
2018-01-12T06:46:13.488Z,15.43
2018-01-12T06:48:41.135Z,15.20
2018-01-12T06:51:08.905Z,14.00
2018-01-12T06:53:36.618Z,16.60
2018-01-12T06:56:05.035Z,14.57
2018-01-12T06:58:32.715Z,14.60
2018-01-12T07:01:00.423Z,12.87
2018-01-12T07:03:28.838Z,12.30
2018-01-12T07:05:56.515Z,11.10
2018-01-12T07:08:24.221Z,12.50
2018-01-12T07:10:52.632Z,12.80
2018-01-12T07:13:20.302Z,13.47
2018-01-12T07:15:47.998Z,13.80
2018-01-12T07:18:15.650Z,13.50
2018-01-12T07:20:55.125Z,14.53
2018-01-12T07:23:35.520Z,14.07
2018-01-12T07:26:03.213Z,14.07
2018-01-12T07:28:30.924Z,14.13
2018-01-12T07:30:58.561Z,14.40
2018-01-12T07:33:27.022Z,14.90
2018-01-12T07:35:54.703Z,14.33
2018-01-12T07:38:23.129Z,15.23
2018-01-12T07:40:50.809Z,14.10
2018-01-12T07:43:18.490Z,13.87
2018-01-12T07:45:46.136Z,13.97
2018-01-12T07:48:13.829Z,15.30
2018-01-12T07:50:42.276Z,14.17
2018-01-12T07:53:15.559Z,13.87
2018-01-12T07:55:43.235Z,13.87
2018-01-12T07:58:10.872Z,13.27
2018-01-12T08:00:44.061Z,14.17
2018-01-12T08:03:11.744Z,13.93
2018-01-12T08:05:39.402Z,14.30
2018-01-12T08:08:07.075Z,14.60
2018-01-12T08:10:35.549Z,15.10
2018-01-12T08:13:03.210Z,15.23
2018-01-12T08:15:30.932Z,14.53
2018-01-12T08:17:58.613Z,13.33
2018-01-12T08:20:26.261Z,13.90
2018-01-12T08:22:54.582Z,13.90
2018-01-12T08:25:23.053Z,13.70
2018-01-12T08:27:51.485Z,15.57
2018-01-12T08:30:19.177Z,14.53
2018-01-12T08:32:46.857Z,15.30
2018-01-12T08:35:15.278Z,15.13
2018-01-12T08:37:42.954Z,16.00
2018-01-12T08:40:10.627Z,15.57
2018-01-12T08:42:38.300Z,16.67
2018-01-12T08:45:05.980Z,17.67
2018-01-12T08:47:34.598Z,15.80
2018-01-12T08:50:02.261Z,17.10
2018-01-12T08:52:29.938Z,17.53
2018-01-12T08:54:57.615Z,18.70
2018-01-12T08:57:25.263Z,16.90
2018-01-12T08:59:53.794Z,17.37
2018-01-12T09:02:22.285Z,16.90
2018-01-12T09:04:49.920Z,16.80
2018-01-12T09:07:18.370Z,18.33
2018-01-12T09:09:46.081Z,18.00
2018-01-12T09:12:13.734Z,17.60
2018-01-12T09:14:48.979Z,18.10
2018-01-12T09:17:28.503Z,19.70
2018-01-12T09:20:08.937Z,18.60
2018-01-12T09:22:45.452Z,18.33
2018-01-12T09:25:25.898Z,18.53
2018-01-12T09:27:54.352Z,17.30
2018-01-12T09:30:21.985Z,17.57
2018-01-12T09:32:49.747Z,16.57
2018-01-12T09:35:17.416Z,16.07
2018-01-12T09:37:45.075Z,15.83
2018-01-12T09:40:21.464Z,16.90
2018-01-12T09:42:49.948Z,17.40
2018-01-12T09:45:18.348Z,17.43
2018-01-12T09:47:57.822Z,17.03
2018-01-12T09:50:25.507Z,16.40
2018-01-12T09:52:53.153Z,16.40
2018-01-12T09:55:20.870Z,16.87
2018-01-12T09:57:48.601Z,17.57
2018-01-12T10:03:15.817Z,15.87
2018-01-12T10:05:43.508Z,18.40
2018-01-12T10:08:16.988Z,17.33
2018-01-12T10:10:44.663Z,16.20
2018-01-12T10:13:12.349Z,17.10
2018-01-12T10:15:39.986Z,16.40
2018-01-12T10:21:06.394Z,16.57
2018-01-12T10:23:34.080Z,16.47
2018-01-12T10:26:01.765Z,16.53
2018-01-12T10:28:29.500Z,16.80
2018-01-12T10:30:59.011Z,17.23
2018-01-12T10:36:39.789Z,17.60
2018-01-12T10:39:22.285Z,18.57
2018-01-12T10:42:01.643Z,19.37
2018-01-12T10:44:29.320Z,19.63
2018-01-12T10:47:14.818Z,17.10
2018-01-12T10:50:17.742Z,17.33
2018-01-12T10:52:47.480Z,18.30
2018-01-12T10:55:15.214Z,16.97
2018-01-12T10:57:42.912Z,18.53
2018-01-12T11:00:22.625Z,18.17
2018-01-12T11:02:50.329Z,17.70
2018-01-12T11:05:17.973Z,16.47
2018-01-12T11:07:45.656Z,16.90
2018-01-12T11:10:14.124Z,17.00
2018-01-12T11:12:41.768Z,17.63
2018-01-12T11:15:09.440Z,19.33
2018-01-12T11:17:37.133Z,20.07
2018-01-12T11:20:04.818Z,17.73
2018-01-12T11:22:32.552Z,18.13
2018-01-12T11:25:00.953Z,20.00
2018-01-12T11:27:28.574Z,17.73
2018-01-12T11:29:57.036Z,16.53
2018-01-12T11:32:24.701Z,16.67
2018-01-12T11:34:52.331Z,16.23
2018-01-12T11:37:20.009Z,17.33
2018-01-12T11:39:47.677Z,18.13
2018-01-12T11:42:15.360Z,17.97
2018-01-12T11:44:43.824Z,20.87
2018-01-12T11:47:11.503Z,18.47
2018-01-12T11:49:39.912Z,20.53
2018-01-12T11:52:07.589Z,19.40
2018-01-12T11:54:36.004Z,20.50
2018-01-12T11:57:03.666Z,20.47
2018-01-12T11:59:31.347Z,19.77
2018-01-12T12:01:59.813Z,20.97
2018-01-12T12:04:28.216Z,19.27
2018-01-12T12:06:55.884Z,19.63
2018-01-12T12:09:23.599Z,18.00
2018-01-12T12:11:51.243Z,17.50
2018-01-12T12:14:18.911Z,18.10
2018-01-12T12:16:46.584Z,18.07
2018-01-12T12:19:14.231Z,19.63
2018-01-12T12:21:41.929Z,19.27
2018-01-12T12:24:09.597Z,17.13
2018-01-12T12:26:37.259Z,17.97
2018-01-12T12:29:04.961Z,17.40
2018-01-12T12:31:32.626Z,19.83
2018-01-12T12:34:00.281Z,18.43
2018-01-12T12:36:27.944Z,17.60
2018-01-12T12:38:55.601Z,17.60
2018-01-12T12:41:23.330Z,20.20
2018-01-12T12:43:51.041Z,18.40
2018-01-12T12:46:18.724Z,19.40
2018-01-12T12:48:47.132Z,21.00
2018-01-12T12:51:14.787Z,21.23
2018-01-12T12:53:42.460Z,21.67
2018-01-12T12:56:10.093Z,19.37
2018-01-12T12:58:37.782Z,21.10
2018-01-12T13:01:05.457Z,19.57
2018-01-12T13:03:33.112Z,20.40
2018-01-12T13:06:00.823Z,21.53
2018-01-12T13:08:29.268Z,20.03
2018-01-12T13:10:56.931Z,21.43
2018-01-12T13:13:24.612Z,20.63
2018-01-12T13:15:52.326Z,20.80
2018-01-12T13:18:19.972Z,21.20
2018-01-12T13:20:47.649Z,21.30
2018-01-12T13:23:15.356Z,20.00
2018-01-12T13:25:43.787Z,20.87
2018-01-12T13:28:11.477Z,19.70
2018-01-12T13:30:39.159Z,18.10
2018-01-12T13:33:07.589Z,22.13
2018-01-12T13:35:35.260Z,19.40
2018-01-12T13:38:02.998Z,20.20
2018-01-12T13:40:30.640Z,21.13
2018-01-12T13:42:58.334Z,20.13
2018-01-12T13:45:26.019Z,19.80
2018-01-12T13:47:53.769Z,20.90
2018-01-12T13:50:21.439Z,20.53
2018-01-12T13:52:49.112Z,20.83
2018-01-12T13:55:16.774Z,21.17
2018-01-12T13:57:44.451Z,19.93
2018-01-12T14:00:12.143Z,20.00
2018-01-12T14:02:39.801Z,22.60
2018-01-12T14:05:07.472Z,21.07
2018-01-12T14:07:35.155Z,20.90
2018-01-12T14:10:02.808Z,21.53
2018-01-12T14:12:30.512Z,21.83
2018-01-12T14:14:58.961Z,20.07
2018-01-12T14:17:26.604Z,20.50
2018-01-12T14:19:54.336Z,20.93
2018-01-12T14:22:22.000Z,20.50
2018-01-12T14:24:49.715Z,19.17
2018-01-12T14:27:17.416Z,21.53
2018-01-12T14:29:45.102Z,21.73
2018-01-12T14:32:12.747Z,20.43
2018-01-12T14:34:40.416Z,21.07
2018-01-12T14:37:08.102Z,21.67
2018-01-12T14:39:35.770Z,20.73
2018-01-12T14:42:03.463Z,21.20
2018-01-12T14:44:31.920Z,21.80
2018-01-12T14:46:59.553Z,22.57
2018-01-12T14:49:27.275Z,24.27
2018-01-12T14:51:54.963Z,23.57
2018-01-12T14:54:22.597Z,22.20
2018-01-12T14:56:50.279Z,23.50
2018-01-12T14:59:17.993Z,22.27
2018-01-12T15:01:46.435Z,22.63
2018-01-12T15:04:14.111Z,24.83
2018-01-12T15:06:41.779Z,24.17
2018-01-12T15:09:09.428Z,22.20
2018-01-12T15:11:37.141Z,22.40
2018-01-12T15:14:04.832Z,23.90
2018-01-12T15:16:33.241Z,22.37
2018-01-12T15:19:00.939Z,25.97
2018-01-12T15:21:28.625Z,23.77
2018-01-12T15:23:56.269Z,24.07
2018-01-12T15:26:23.963Z,25.17
2018-01-12T15:28:51.672Z,23.50
2018-01-12T15:31:20.124Z,25.10
2018-01-12T15:33:47.876Z,28.20
2018-01-12T15:36:15.585Z,26.40
2018-01-12T15:38:43.362Z,27.00
2018-01-12T15:41:11.099Z,24.90
2018-01-12T15:43:39.556Z,29.17
2018-01-12T15:46:07.195Z,28.70
2018-01-12T15:48:34.942Z,28.63
2018-01-12T15:51:02.610Z,28.93
2018-01-12T15:53:30.247Z,29.50
2018-01-12T15:55:57.982Z,30.33
2018-01-12T15:58:25.666Z,28.20
2018-01-12T16:00:53.309Z,28.00
2018-01-12T16:03:21.031Z,26.30
2018-01-12T16:05:48.718Z,29.40
2018-01-12T16:08:17.135Z,26.77
2018-01-12T16:10:44.796Z,27.50
2018-01-12T16:13:12.449Z,26.27
2018-01-12T16:15:40.125Z,28.83
2018-01-12T16:18:07.806Z,28.37
2018-01-12T16:20:35.489Z,26.60
2018-01-12T16:23:03.941Z,26.90
2018-01-12T16:25:31.611Z,26.03
2018-01-12T16:27:59.295Z,27.50
2018-01-12T16:30:26.934Z,27.00
2018-01-12T16:32:54.602Z,25.87
2018-01-12T16:35:22.524Z,26.90
2018-01-12T16:37:50.157Z,27.27
2018-01-12T16:40:17.823Z,25.40
2018-01-12T16:42:45.496Z,25.87
2018-01-12T16:45:13.142Z,25.30
2018-01-12T16:47:40.817Z,25.90
2018-01-12T16:50:08.479Z,26.37
2018-01-12T16:52:36.190Z,25.67
2018-01-12T16:55:03.883Z,24.83
2018-01-12T16:57:31.545Z,22.83
2018-01-12T16:59:59.196Z,25.70
2018-01-12T17:02:27.931Z,23.80
2018-01-12T17:04:57.236Z,24.70
2018-01-12T17:07:25.042Z,24.10
2018-01-12T17:09:53.622Z,24.40
2018-01-12T17:12:22.073Z,25.30
2018-01-12T17:14:49.729Z,25.33
2018-01-12T17:17:17.406Z,25.03
2018-01-12T17:19:45.080Z,24.07
2018-01-12T17:22:13.484Z,23.57
2018-01-12T17:24:41.211Z,25.80
2018-01-12T17:27:08.890Z,24.77
2018-01-12T17:29:36.540Z,23.90
2018-01-12T17:32:04.971Z,24.70
2018-01-12T17:34:32.636Z,22.77
2018-01-12T17:37:00.277Z,21.83
2018-01-12T17:39:27.947Z,21.70
2018-01-12T17:41:55.637Z,22.43
2018-01-12T17:44:23.288Z,23.07
2018-01-12T17:46:50.970Z,23.50
2018-01-12T17:49:19.412Z,23.33
2018-01-12T17:51:47.053Z,22.80
2018-01-12T17:54:14.734Z,24.40
2018-01-12T17:56:42.409Z,23.80
2018-01-12T17:59:10.065Z,24.43
2018-01-12T18:01:37.778Z,23.67
2018-01-12T18:04:05.468Z,23.40
2018-01-12T18:06:33.121Z,25.40
2018-01-12T18:09:00.798Z,22.90
2018-01-12T18:11:28.477Z,23.90
2018-01-12T18:13:56.116Z,23.87
2018-01-12T18:16:23.768Z,27.70
2018-01-12T18:18:51.436Z,25.80
2018-01-12T18:21:19.087Z,23.10
2018-01-12T18:23:46.764Z,24.47
2018-01-12T18:26:14.448Z,25.03
2018-01-12T18:28:42.861Z,24.23
2018-01-12T18:31:10.529Z,23.47
2018-01-12T18:33:38.200Z,23.97
2018-01-12T18:36:05.841Z,25.60
2018-01-12T18:38:33.517Z,24.17
2018-01-12T18:41:01.186Z,24.40
2018-01-12T18:43:28.820Z,24.80
2018-01-12T18:45:56.505Z,25.30
2018-01-12T18:48:24.184Z,24.00
2018-01-12T18:50:51.808Z,25.77
2018-01-12T18:53:19.470Z,25.03
2018-01-12T18:55:47.181Z,24.07
2018-01-12T18:58:14.856Z,27.40
2018-01-12T19:00:43.308Z,24.87
2018-01-12T19:03:10.989Z,25.90
2018-01-12T19:05:38.624Z,24.40
2018-01-12T19:08:06.295Z,24.20
2018-01-12T19:10:33.978Z,27.60
2018-01-12T19:13:02.395Z,25.70
2018-01-12T19:15:30.088Z,25.03
2018-01-12T19:17:57.763Z,26.13
2018-01-12T19:20:25.413Z,25.30
2018-01-12T19:22:53.084Z,25.40
2018-01-12T19:25:20.747Z,26.13
2018-01-12T19:27:48.391Z,27.00
2018-01-12T19:30:16.069Z,27.70
2018-01-12T19:32:43.746Z,26.70
2018-01-12T19:35:12.164Z,27.90
2018-01-12T19:37:39.832Z,26.57
2018-01-12T19:40:07.503Z,26.97
2018-01-12T19:42:35.169Z,30.77
2018-01-12T19:45:02.872Z,25.33
2018-01-12T19:47:31.322Z,25.97
2018-01-12T19:49:58.982Z,28.77
2018-01-12T19:52:26.659Z,26.57
2018-01-12T19:54:54.324Z,25.60
2018-01-12T19:57:22.753Z,25.33
2018-01-12T19:59:50.444Z,24.70
2018-01-12T20:02:18.115Z,26.17
2018-01-12T20:04:46.529Z,25.33
2018-01-12T20:07:14.209Z,27.43
2018-01-12T20:09:41.877Z,29.97
2018-01-12T20:12:09.515Z,26.90
2018-01-12T20:14:37.950Z,25.07
2018-01-12T20:17:06.392Z,25.20
2018-01-12T20:19:34.032Z,25.07
2018-01-12T20:22:01.709Z,26.60
2018-01-12T20:24:29.399Z,25.93
2018-01-12T20:26:57.049Z,23.90
2018-01-12T20:29:24.728Z,26.17
2018-01-12T20:31:53.236Z,25.40
2018-01-12T20:34:20.861Z,24.23
2018-01-12T20:36:48.555Z,24.53
2018-01-12T20:39:16.265Z,25.97
2018-01-12T20:41:43.918Z,24.10
2018-01-12T20:44:11.572Z,23.90
2018-01-12T20:46:39.245Z,24.20
2018-01-12T20:49:06.886Z,27.00
2018-01-12T20:51:34.567Z,23.60
2018-01-12T20:54:02.246Z,24.90
2018-01-12T20:56:29.924Z,24.20
2018-01-12T20:58:58.357Z,24.20
2018-01-12T21:01:26.023Z,25.73
2018-01-12T21:03:53.670Z,25.30
2018-01-12T21:06:21.343Z,23.97
2018-01-12T21:08:49.002Z,24.60
2018-01-12T21:11:16.851Z,25.97
2018-01-12T21:13:44.550Z,25.40
2018-01-12T21:16:12.236Z,24.47
2018-01-12T21:18:40.658Z,24.53
2018-01-12T21:21:08.378Z,23.87
2018-01-12T21:23:36.064Z,25.07
2018-01-12T21:26:03.707Z,23.40
2018-01-12T21:28:31.406Z,25.00
2018-01-12T21:30:59.152Z,25.13
2018-01-12T21:33:27.014Z,24.67
2018-01-12T21:35:54.823Z,23.93
2018-01-12T21:38:22.700Z,23.97
2018-01-12T21:40:50.452Z,25.10
2018-01-12T21:43:19.009Z,26.00
2018-01-12T21:45:47.754Z,24.90
2018-01-12T21:48:15.748Z,24.07
2018-01-12T21:50:43.675Z,25.50
2018-01-12T21:53:11.585Z,25.27
2018-01-12T21:55:39.394Z,25.60
2018-01-12T21:58:08.073Z,25.97
2018-01-12T22:00:36.627Z,26.70
2018-01-12T22:03:04.356Z,24.57
2018-01-12T22:05:32.099Z,24.83
2018-01-12T22:07:59.868Z,23.13
2018-01-12T22:10:27.589Z,24.30
2018-01-12T22:12:55.319Z,24.57
2018-01-12T22:15:23.129Z,26.00
2018-01-12T22:17:51.608Z,25.33
2018-01-12T22:20:20.044Z,23.27
2018-01-12T22:22:47.708Z,26.77
2018-01-12T22:25:15.336Z,26.40
2018-01-12T22:27:43.017Z,27.83
2018-01-12T22:30:10.692Z,23.83
2018-01-12T22:32:38.355Z,27.13
2018-01-12T22:35:06.037Z,26.60
2018-01-12T22:37:34.479Z,24.80
2018-01-12T22:40:02.132Z,25.20
2018-01-12T22:42:29.860Z,23.93
2018-01-12T22:44:58.304Z,23.30
2018-01-12T22:47:25.976Z,24.70
2018-01-12T22:49:53.661Z,23.53
2018-01-12T22:52:21.345Z,23.53
2018-01-12T22:54:49.028Z,24.90
2018-01-12T22:57:16.707Z,24.00
2018-01-12T22:59:44.388Z,22.97
2018-01-12T23:02:12.835Z,26.33
2018-01-12T23:04:40.499Z,22.17
2018-01-12T23:07:08.184Z,24.30
2018-01-12T23:09:35.823Z,23.50
2018-01-12T23:12:03.491Z,23.27
2018-01-12T23:14:31.173Z,23.80
2018-01-12T23:16:59.584Z,22.70
2018-01-12T23:19:27.277Z,24.67
2018-01-12T23:21:55.298Z,23.10
2018-01-12T23:24:23.565Z,24.27
2018-01-12T23:26:52.020Z,21.63
2018-01-12T23:29:19.689Z,23.57
2018-01-12T23:31:48.120Z,20.73
2018-01-12T23:34:15.796Z,21.50
2018-01-12T23:36:43.479Z,20.10
2018-01-12T23:39:11.160Z,20.23
2018-01-12T23:41:38.868Z,18.30
2018-01-12T23:44:06.528Z,19.57
2018-01-12T23:46:34.156Z,19.60
2018-01-12T23:49:01.824Z,19.40
2018-01-12T23:51:29.535Z,20.67
2018-01-12T23:53:57.184Z,19.20
2018-01-12T23:56:24.879Z,18.00
2018-01-12T23:58:53.388Z,19.83
